Time;durP1;ratioP1;P1;durP2;ratioP2;P2;SDS_P1;SDS_P2;PMS_P1;PMS_P2;Temp;Humidity;BMP_temperature;BMP_pressure;BME280_temperature;BME280_humidity;BME280_pressure;Samples;Min_cycle;Max_cycle;Signal;HPM_P1;HPM_P2
2023/06/05 00:01:55;;;;;;;5.95;2.80;;;;;;;;;;5009863;28;20042;-59
2023/06/05 00:04:23;;;;;;;4.82;2.50;;;;;;;;;;5011543;28;20044;-59
2023/06/05 00:06:49;;;;;;;5.88;2.90;;;;;;;;;;5006425;28;20382;-60
2023/06/05 00:09:14;;;;;;;5.70;2.97;;;;;;;;;;5016554;28;20482;-59
2023/06/05 00:11:40;;;;;;;6.20;3.00;;;;;;;;;;5022906;28;20088;-58
2023/06/05 00:14:08;;;;;;;5.03;2.80;;;;;;;;;;5009043;28;20080;-60
2023/06/05 00:16:33;;;;;;;6.28;2.70;;;;;;;;;;5009043;28;20034;-59
2023/06/05 00:18:58;;;;;;;5.88;2.90;;;;;;;;;;5009897;28;20033;-59
2023/06/05 00:21:25;;;;;;;6.90;2.70;;;;;;;;;;4992073;28;20030;-59
2023/06/05 00:23:50;;;;;;;6.32;3.13;;;;;;;;;;4999975;28;20026;-59
2023/06/05 00:26:15;;;;;;;5.88;3.00;;;;;;;;;;5009835;28;20045;-59
2023/06/05 00:28:41;;;;;;;4.68;2.80;;;;;;;;;;5008108;28;20086;-59
2023/06/05 00:31:06;;;;;;;4.82;2.90;;;;;;;;;;5026484;28;20465;-58
2023/06/05 00:33:32;;;;;;;6.43;2.90;;;;;;;;;;4995196;28;20038;-58
2023/06/05 00:35:57;;;;;;;5.65;2.85;;;;;;;;;;4995058;28;20046;-59
2023/06/05 00:38:23;;;;;;;5.35;3.05;;;;;;;;;;5006922;28;20028;-59
2023/06/05 00:40:48;;;;;;;6.93;2.90;;;;;;;;;;5015293;28;20113;-59
2023/06/05 00:43:13;;;;;;;9.30;3.08;;;;;;;;;;5011905;28;20038;-59
2023/06/05 00:45:39;;;;;;;6.05;2.92;;;;;;;;;;5030185;28;20367;-59
2023/06/05 00:48:05;;;;;;;6.88;2.85;;;;;;;;;;5003767;28;20522;-59
2023/06/05 00:50:32;;;;;;;6.45;3.03;;;;;;;;;;5021785;28;20398;-59
2023/06/05 00:52:58;;;;;;;7.38;2.80;;;;;;;;;;5025223;28;20320;-60
2023/06/05 00:55:25;;;;;;;6.00;2.95;;;;;;;;;;5012261;28;20034;-59
2023/06/05 00:57:50;;;;;;;5.00;2.83;;;;;;;;;;5005844;28;20034;-58
2023/06/05 01:00:16;;;;;;;4.75;2.67;;;;;;;;;;5029339;28;20094;-59
2023/06/05 01:02:42;;;;;;;6.63;3.08;;;;;;;;;;5029894;28;20033;-58
2023/06/05 01:05:08;;;;;;;8.82;3.20;;;;;;;;;;5033860;28;20454;-59
2023/06/05 01:07:37;;;;;;;5.95;3.10;;;;;;;;;;5002969;28;20597;-59
2023/06/05 01:10:05;;;;;;;4.97;2.78;;;;;;;;;;5005387;28;20030;-58
2023/06/05 01:12:55;;;;;;;5.60;2.80;;;;;;;;;;5020115;28;20729;-58
2023/06/05 01:15:28;;;;;;;6.30;3.03;;;;;;;;;;5030481;28;20546;-59
2023/06/05 01:17:56;;;;;;;6.25;2.90;;;;;;;;;;5017387;28;20029;-57
2023/06/05 01:20:22;;;;;;;5.55;3.05;;;;;;;;;;5013290;28;20047;-59
2023/06/05 01:22:52;;;;;;;7.78;3.25;;;;;;;;;;5010142;28;20057;-58
2023/06/05 01:25:18;;;;;;;6.53;2.85;;;;;;;;;;5009645;28;20033;-59
2023/06/05 01:27:55;;;;;;;6.07;3.15;;;;;;;;;;5033626;28;20030;-59
2023/06/05 01:30:44;;;;;;;5.85;3.13;;;;;;;;;;5030763;28;20025;-59
2023/06/05 01:33:31;;;;;;;5.80;3.25;;;;;;;;;;5004075;28;20065;-58
2023/06/05 01:36:04;;;;;;;8.25;3.20;;;;;;;;;;4998752;28;20093;-58
2023/06/05 01:38:34;;;;;;;5.25;3.40;;;;;;;;;;5001602;28;20041;-59
2023/06/05 01:41:00;;;;;;;6.63;3.05;;;;;;;;;;5021466;28;20030;-58
2023/06/05 01:43:26;;;;;;;7.13;3.30;;;;;;;;;;5006599;28;20038;-59
2023/06/05 01:45:56;;;;;;;8.82;3.60;;;;;;;;;;5001866;28;20041;-59
2023/06/05 01:48:23;;;;;;;6.47;3.10;;;;;;;;;;5000102;28;20578;-60
2023/06/05 01:50:49;;;;;;;6.95;3.38;;;;;;;;;;5010063;28;20458;-58
2023/06/05 01:53:16;;;;;;;6.78;3.67;;;;;;;;;;5006840;28;20037;-58
2023/06/05 01:55:42;;;;;;;6.88;3.38;;;;;;;;;;5001821;28;20034;-58
2023/06/05 01:58:07;;;;;;;5.85;3.40;;;;;;;;;;5012022;28;20034;-58
2023/06/05 02:00:35;;;;;;;8.95;3.47;;;;;;;;;;5012130;28;20493;-59
2023/06/05 02:03:00;;;;;;;5.18;3.30;;;;;;;;;;5009118;28;20209;-60
2023/06/05 02:05:29;;;;;;;5.45;3.85;;;;;;;;;;4993614;28;20045;-59
2023/06/05 02:07:58;;;;;;;7.03;3.63;;;;;;;;;;5005577;28;20029;-60
2023/06/05 02:10:23;;;;;;;9.57;3.55;;;;;;;;;;5011180;28;20044;-59
2023/06/05 02:12:49;;;;;;;6.63;3.45;;;;;;;;;;5012851;28;20121;-59
2023/06/05 02:15:14;;;;;;;5.70;3.60;;;;;;;;;;5019820;28;20033;-59
2023/06/05 02:17:50;;;;;;;6.18;3.80;;;;;;;;;;5025263;28;20437;-59
2023/06/05 02:20:16;;;;;;;6.88;3.55;;;;;;;;;;5013414;28;20025;-58
2023/06/05 02:22:41;;;;;;;8.63;3.88;;;;;;;;;;5025046;28;20039;-58
2023/06/05 02:25:08;;;;;;;7.35;3.90;;;;;;;;;;5009723;28;20113;-60
2023/06/05 02:27:34;;;;;;;6.93;4.20;;;;;;;;;;4996884;28;20038;-60
2023/06/05 02:29:59;;;;;;;8.13;4.22;;;;;;;;;;5013204;28;20415;-58
2023/06/05 02:32:28;;;;;;;8.85;4.07;;;;;;;;;;5032329;28;20041;-59
2023/06/05 02:34:56;;;;;;;6.47;3.78;;;;;;;;;;5004508;28;20487;-60
2023/06/05 02:37:22;;;;;;;8.48;4.00;;;;;;;;;;4995762;28;20111;-60
2023/06/05 02:39:47;;;;;;;6.80;3.90;;;;;;;;;;5005731;28;20049;-59
2023/06/05 02:42:13;;;;;;;9.50;4.50;;;;;;;;;;5019796;28;20057;-61
2023/06/05 02:44:38;;;;;;;10.43;4.25;;;;;;;;;;5014030;28;20426;-60
2023/06/05 02:47:04;;;;;;;8.20;4.03;;;;;;;;;;5011520;28;20034;-60
2023/06/05 02:49:30;;;;;;;6.53;4.20;;;;;;;;;;5007749;28;20040;-59
2023/06/05 02:51:55;;;;;;;8.15;4.40;;;;;;;;;;5011149;28;20038;-59
2023/06/05 02:54:21;;;;;;;9.05;5.13;;;;;;;;;;5007674;28;20144;-58
2023/06/05 02:56:47;;;;;;;6.68;4.10;;;;;;;;;;5014778;28;20040;-59
2023/06/05 02:59:12;;;;;;;8.68;4.18;;;;;;;;;;5028969;28;20033;-59
2023/06/05 03:01:46;;;;;;;7.20;4.45;;;;;;;;;;5014357;28;20030;-58
2023/06/05 03:04:12;;;;;;;6.32;3.92;;;;;;;;;;5000328;28;20030;-60
2023/06/05 03:06:43;;;;;;;7.35;4.68;;;;;;;;;;5010310;28;20026;-60
2023/06/05 03:09:09;;;;;;;9.30;4.28;;;;;;;;;;5009241;28;20041;-58
2023/06/05 03:11:34;;;;;;;8.15;4.60;;;;;;;;;;5023391;28;20049;-59
2023/06/05 03:13:59;;;;;;;9.02;4.40;;;;;;;;;;5019348;28;20033;-59
2023/06/05 03:16:34;;;;;;;9.30;4.97;;;;;;;;;;5009642;28;20022;-59
2023/06/05 03:19:00;;;;;;;7.95;4.57;;;;;;;;;;5011154;28;20103;-58
2023/06/05 03:21:25;;;;;;;9.40;4.43;;;;;;;;;;5001555;28;20685;-58
2023/06/05 03:23:50;;;;;;;8.55;5.10;;;;;;;;;;5007371;28;20061;-58
2023/06/05 03:26:16;;;;;;;7.95;4.75;;;;;;;;;;5016997;28;20057;-60
2023/06/05 03:28:42;;;;;;;9.18;4.65;;;;;;;;;;4998931;28;20100;-58
2023/06/05 03:31:09;;;;;;;9.30;4.90;;;;;;;;;;5004312;28;20037;-58
2023/06/05 03:33:34;;;;;;;10.32;4.70;;;;;;;;;;4993969;28;20034;-59
2023/06/05 03:36:00;;;;;;;7.78;4.78;;;;;;;;;;5004984;28;20079;-57
2023/06/05 03:38:25;;;;;;;8.07;4.97;;;;;;;;;;5009767;28;20083;-59
2023/06/05 03:40:50;;;;;;;8.40;4.80;;;;;;;;;;5005593;28;20450;-59
2023/06/05 03:43:16;;;;;;;8.63;5.00;;;;;;;;;;4992489;28;20034;-59
2023/06/05 03:45:41;;;;;;;9.45;5.38;;;;;;;;;;5002382;28;20041;-58
2023/06/05 03:48:08;;;;;;;9.25;4.90;;;;;;;;;;5011572;28;20041;-59
2023/06/05 03:50:37;;;;;;;10.20;5.20;;;;;;;;;;5010530;28;20031;-59
2023/06/05 03:53:04;;;;;;;9.02;5.38;;;;;;;;;;5008727;28;20045;-59
2023/06/05 03:55:40;;;;;;;8.50;4.95;;;;;;;;;;5007900;28;20029;-59
2023/06/05 03:58:08;;;;;;;11.25;5.50;;;;;;;;;;5007992;28;20029;-60
2023/06/05 04:00:34;;;;;;;8.63;5.13;;;;;;;;;;5009699;28;20026;-59
2023/06/05 04:02:59;;;;;;;8.88;5.10;;;;;;;;;;5004282;28;20167;-59
2023/06/05 04:05:24;;;;;;;9.55;5.63;;;;;;;;;;5014639;28;20036;-59
2023/06/05 04:07:50;;;;;;;10.25;5.55;;;;;;;;;;5008460;28;20034;-59
2023/06/05 04:10:15;;;;;;;11.05;5.80;;;;;;;;;;5010919;28;20490;-59
2023/06/05 04:12:41;;;;;;;8.10;5.40;;;;;;;;;;5007650;28;20125;-59
2023/06/05 04:15:07;;;;;;;10.55;5.72;;;;;;;;;;5023583;28;20366;-59
2023/06/05 04:17:32;;;;;;;9.00;5.60;;;;;;;;;;5010052;28;20041;-59
2023/06/05 04:19:57;;;;;;;10.18;5.70;;;;;;;;;;5012018;28;20164;-59
2023/06/05 04:22:23;;;;;;;10.43;5.97;;;;;;;;;;5010199;28;20033;-60
2023/06/05 04:24:48;;;;;;;9.23;5.57;;;;;;;;;;5011857;28;20383;-60
2023/06/05 04:27:14;;;;;;;12.32;5.78;;;;;;;;;;5004166;28;20470;-60
2023/06/05 04:29:39;;;;;;;9.20;5.70;;;;;;;;;;5020989;28;20033;-60
2023/06/05 04:32:05;;;;;;;9.20;5.50;;;;;;;;;;5015378;28;20033;-59
2023/06/05 04:34:31;;;;;;;9.82;5.70;;;;;;;;;;4990065;28;20656;-60
2023/06/05 04:36:56;;;;;;;13.07;6.15;;;;;;;;;;5009625;28;20044;-60
2023/06/05 04:39:21;;;;;;;9.77;5.78;;;;;;;;;;5007293;28;20054;-59
2023/06/05 04:41:47;;;;;;;10.05;6.13;;;;;;;;;;5013363;28;20025;-58
2023/06/05 04:44:13;;;;;;;9.73;5.97;;;;;;;;;;5007382;28;20074;-58
2023/06/05 04:46:39;;;;;;;12.45;6.15;;;;;;;;;;5009355;28;20033;-60
2023/06/05 04:49:06;;;;;;;12.25;5.82;;;;;;;;;;5021321;28;20091;-59
2023/06/05 04:51:33;;;;;;;10.88;6.05;;;;;;;;;;5009823;28;20103;-58
2023/06/05 04:53:59;;;;;;;10.15;5.90;;;;;;;;;;5002637;28;20399;-58
2023/06/05 04:56:25;;;;;;;10.27;6.13;;;;;;;;;;4998943;28;20035;-58
2023/06/05 04:58:52;;;;;;;10.45;6.00;;;;;;;;;;4995453;28;20034;-59
2023/06/05 05:01:17;;;;;;;10.10;5.80;;;;;;;;;;4992963;28;20411;-58
2023/06/05 05:03:44;;;;;;;9.80;6.10;;;;;;;;;;4994465;28;20030;-59
2023/06/05 05:06:10;;;;;;;10.70;5.70;;;;;;;;;;5004166;28;20038;-60
2023/06/05 05:08:36;;;;;;;12.75;5.90;;;;;;;;;;4990495;28;20041;-61
2023/06/05 05:11:02;;;;;;;11.55;6.00;;;;;;;;;;4995944;28;20057;-61
2023/06/05 05:13:27;;;;;;;9.15;6.00;;;;;;;;;;5009713;28;20029;-59
2023/06/05 05:15:52;;;;;;;12.60;6.15;;;;;;;;;;5010386;28;20030;-58
2023/06/05 05:18:18;;;;;;;11.43;6.20;;;;;;;;;;5023681;28;20167;-59
2023/06/05 05:20:45;;;;;;;10.40;5.85;;;;;;;;;;5011424;28;20030;-60
2023/06/05 05:23:10;;;;;;;10.05;6.50;;;;;;;;;;5000705;28;20031;-60
2023/06/05 05:25:37;;;;;;;11.75;6.38;;;;;;;;;;4994899;28;20182;-59
2023/06/05 05:28:03;;;;;;;11.98;6.40;;;;;;;;;;4999137;28;20136;-59
2023/06/05 05:30:30;;;;;;;12.43;6.68;;;;;;;;;;4993994;28;20431;-60
2023/06/05 05:32:56;;;;;;;11.18;6.03;;;;;;;;;;4995029;28;20041;-60
2023/06/05 05:35:22;;;;;;;15.35;7.10;;;;;;;;;;5011186;28;20029;-60
2023/06/05 05:37:47;;;;;;;10.90;6.30;;;;;;;;;;5014825;28;20022;-60
2023/06/05 05:40:13;;;;;;;13.07;6.32;;;;;;;;;;5013470;28;20079;-60
2023/06/05 05:42:38;;;;;;;10.55;6.63;;;;;;;;;;5027614;28;20079;-61
2023/06/05 05:45:04;;;;;;;10.50;6.22;;;;;;;;;;5015738;28;20061;-59
2023/06/05 05:47:30;;;;;;;10.65;6.03;;;;;;;;;;5013405;28;20039;-60
2023/06/05 05:49:55;;;;;;;11.90;6.50;;;;;;;;;;5019892;28;20042;-61
2023/06/05 05:52:22;;;;;;;12.98;7.03;;;;;;;;;;5026465;28;20057;-57
2023/06/05 05:54:48;;;;;;;10.40;6.30;;;;;;;;;;5033617;28;20026;-59
2023/06/05 05:57:13;;;;;;;13.27;6.13;;;;;;;;;;5029252;28;20390;-59
2023/06/05 05:59:42;;;;;;;10.93;6.38;;;;;;;;;;5033381;28;20402;-58
2023/06/05 06:02:09;;;;;;;10.82;6.40;;;;;;;;;;5012739;28;20494;-61
2023/06/05 06:04:35;;;;;;;11.00;6.00;;;;;;;;;;4992839;28;20030;-59
2023/06/05 06:07:00;;;;;;;11.68;6.35;;;;;;;;;;5022743;28;20037;-59
2023/06/05 06:09:26;;;;;;;10.68;6.53;;;;;;;;;;5011191;28;20367;-59
2023/06/05 06:11:55;;;;;;;9.65;5.97;;;;;;;;;;5013821;28;20061;-60
2023/06/05 06:14:24;;;;;;;11.52;6.10;;;;;;;;;;5008010;28;20454;-60
2023/06/05 06:16:50;;;;;;;10.40;6.30;;;;;;;;;;5013717;28;20029;-60
2023/06/05 06:19:16;;;;;;;10.40;6.28;;;;;;;;;;5010186;28;20033;-59
2023/06/05 06:21:42;;;;;;;11.75;6.25;;;;;;;;;;4993950;28;20085;-60
2023/06/05 06:24:08;;;;;;;11.40;6.55;;;;;;;;;;5004321;28;20026;-59
2023/06/05 06:26:34;;;;;;;12.00;6.47;;;;;;;;;;5003521;28;20164;-60
2023/06/05 06:28:59;;;;;;;10.10;6.40;;;;;;;;;;5010749;28;20493;-60
2023/06/05 06:31:25;;;;;;;11.40;6.45;;;;;;;;;;5000579;28;20031;-58
2023/06/05 06:33:50;;;;;;;10.30;6.13;;;;;;;;;;5012263;28;20451;-58
2023/06/05 06:36:17;;;;;;;9.77;6.00;;;;;;;;;;5016168;28;20497;-57
2023/06/05 06:38:43;;;;;;;10.48;6.18;;;;;;;;;;5012857;28;20726;-60
2023/06/05 06:41:08;;;;;;;11.75;6.55;;;;;;;;;;5013267;28;20041;-60
2023/06/05 06:43:34;;;;;;;11.57;6.32;;;;;;;;;;5012936;28;20584;-61
2023/06/05 06:46:00;;;;;;;13.48;6.30;;;;;;;;;;5012986;28;20037;-60
2023/06/05 06:48:25;;;;;;;12.55;6.55;;;;;;;;;;5017405;28;20029;-60
2023/06/05 06:50:52;;;;;;;11.07;6.22;;;;;;;;;;5012877;28;20030;-60
2023/06/05 06:53:18;;;;;;;14.35;6.45;;;;;;;;;;5011116;28;20414;-61
2023/06/05 06:55:44;;;;;;;11.05;5.50;;;;;;;;;;5012063;28;20160;-57
2023/06/05 06:58:09;;;;;;;8.93;5.65;;;;;;;;;;5012437;28;20113;-56
2023/06/05 07:00:35;;;;;;;9.15;5.45;;;;;;;;;;5010701;28;20036;-60
2023/06/05 07:03:01;;;;;;;10.43;5.72;;;;;;;;;;5012770;28;20029;-60
2023/06/05 07:05:26;;;;;;;10.65;5.80;;;;;;;;;;4994786;28;20523;-60
2023/06/05 07:07:52;;;;;;;10.73;6.18;;;;;;;;;;5012347;28;20390;-59
2023/06/05 07:10:17;;;;;;;12.70;5.55;;;;;;;;;;5012094;28;20026;-59
2023/06/05 07:12:43;;;;;;;12.10;5.70;;;;;;;;;;5010167;28;20410;-59
2023/06/05 07:15:08;;;;;;;10.50;5.82;;;;;;;;;;5020589;28;20045;-59
2023/06/05 07:17:34;;;;;;;11.80;6.13;;;;;;;;;;5018136;28;20470;-60
2023/06/05 07:19:59;;;;;;;12.25;6.28;;;;;;;;;;5026743;28;20035;-60
2023/06/05 07:22:28;;;;;;;9.80;6.40;;;;;;;;;;4993407;28;20038;-59
2023/06/05 07:24:53;;;;;;;10.23;6.00;;;;;;;;;;4996206;28;20046;-59
2023/06/05 07:27:20;;;;;;;10.88;6.60;;;;;;;;;;5007993;28;20033;-59
2023/06/05 07:29:46;;;;;;;9.50;5.85;;;;;;;;;;5012293;28;20148;-60
2023/06/05 07:32:12;;;;;;;11.38;6.45;;;;;;;;;;5010524;28;20463;-60
2023/06/05 07:34:38;;;;;;;11.05;6.22;;;;;;;;;;4990946;28;20084;-60
2023/06/05 07:37:04;;;;;;;12.15;6.28;;;;;;;;;;5005345;28;20164;-58
2023/06/05 07:39:29;;;;;;;9.93;6.15;;;;;;;;;;5011185;28;20057;-59
2023/06/05 07:41:55;;;;;;;10.40;5.70;;;;;;;;;;5010718;28;20079;-60
2023/06/05 07:44:21;;;;;;;9.57;6.10;;;;;;;;;;4999154;28;20116;-60
2023/06/05 07:46:48;;;;;;;9.20;5.80;;;;;;;;;;4991849;28;20037;-60
2023/06/05 07:49:15;;;;;;;10.98;6.63;;;;;;;;;;4992707;28;20035;-60
2023/06/05 07:51:41;;;;;;;9.93;5.90;;;;;;;;;;4991858;28;20599;-59
2023/06/05 07:54:08;;;;;;;10.35;6.15;;;;;;;;;;4992389;28;20551;-59
2023/06/05 07:56:34;;;;;;;9.55;6.05;;;;;;;;;;5003004;28;20062;-60
2023/06/05 07:59:02;;;;;;;11.77;5.72;;;;;;;;;;5010890;28;20038;-60
2023/06/05 08:01:28;;;;;;;10.30;5.80;;;;;;;;;;5009956;28;20034;-60
2023/06/05 08:03:54;;;;;;;10.27;5.90;;;;;;;;;;4991096;28;20025;-60
2023/06/05 08:06:19;;;;;;;9.02;5.30;;;;;;;;;;5007794;28;20466;-60
2023/06/05 08:08:45;;;;;;;8.68;5.60;;;;;;;;;;5011495;28;20449;-60
2023/06/05 08:11:10;;;;;;;7.45;5.07;;;;;;;;;;5011757;28;20359;-60
2023/06/05 08:13:39;;;;;;;8.80;5.55;;;;;;;;;;5011732;28;20038;-58
2023/06/05 08:16:05;;;;;;;9.05;5.25;;;;;;;;;;5007936;28;20518;-60
2023/06/05 08:18:31;;;;;;;8.52;6.00;;;;;;;;;;5011008;28;20106;-59
2023/06/05 08:20:56;;;;;;;10.88;6.03;;;;;;;;;;5011816;28;20108;-59
2023/06/05 08:23:21;;;;;;;8.48;5.68;;;;;;;;;;5005214;28;20022;-62
2023/06/05 08:25:48;;;;;;;9.80;5.30;;;;;;;;;;5015767;28;20038;-60
2023/06/05 08:28:15;;;;;;;7.95;4.85;;;;;;;;;;5017911;28;20030;-59
2023/06/05 08:30:40;;;;;;;9.55;5.70;;;;;;;;;;5018297;28;20667;-59
2023/06/05 08:33:06;;;;;;;12.98;5.53;;;;;;;;;;5011795;28;20029;-60
2023/06/05 08:35:31;;;;;;;11.82;5.45;;;;;;;;;;5010892;28;20041;-60
2023/06/05 08:37:57;;;;;;;8.05;5.07;;;;;;;;;;5011699;28;20030;-60
2023/06/05 08:40:23;;;;;;;9.60;5.10;;;;;;;;;;5010520;28;20451;-59
2023/06/05 08:42:48;;;;;;;10.52;5.30;;;;;;;;;;5012130;28;20045;-59
2023/06/05 08:45:14;;;;;;;8.30;5.22;;;;;;;;;;5010309;28;20152;-60
2023/06/05 08:47:41;;;;;;;12.65;4.93;;;;;;;;;;5021515;28;20029;-60
2023/06/05 08:50:08;;;;;;;10.77;4.75;;;;;;;;;;5031278;28;20037;-60
2023/06/05 08:52:36;;;;;;;11.10;5.40;;;;;;;;;;5034205;28;20187;-60
2023/06/05 08:55:07;;;;;;;8.60;5.22;;;;;;;;;;5032373;28;20913;-60
2023/06/05 08:57:37;;;;;;;7.82;4.90;;;;;;;;;;4996788;28;20038;-60
2023/06/05 09:00:10;;;;;;;7.30;4.38;;;;;;;;;;4995670;28;20035;-59
2023/06/05 09:02:38;;;;;;;8.10;4.65;;;;;;;;;;4998057;28;20120;-60
2023/06/05 09:05:04;;;;;;;10.50;4.90;;;;;;;;;;5010163;28;20092;-60
2023/06/05 09:07:31;;;;;;;9.77;5.63;;;;;;;;;;5006554;28;20463;-56
2023/06/05 09:09:56;;;;;;;8.05;5.05;;;;;;;;;;4998213;28;20030;-60
2023/06/05 09:12:24;;;;;;;10.93;5.35;;;;;;;;;;5012901;28;20041;-60
2023/06/05 09:14:50;;;;;;;9.15;5.00;;;;;;;;;;5015196;28;20048;-60
2023/06/05 09:17:17;;;;;;;10.85;4.93;;;;;;;;;;5020092;28;20038;-60
2023/06/05 09:19:43;;;;;;;7.57;4.45;;;;;;;;;;5014816;28;20644;-60
2023/06/05 09:22:10;;;;;;;8.90;4.70;;;;;;;;;;5014174;28;20129;-61
2023/06/05 09:24:36;;;;;;;6.43;4.28;;;;;;;;;;5013923;28;20034;-60
2023/06/05 09:27:03;;;;;;;7.50;4.82;;;;;;;;;;5013548;28;20398;-60
2023/06/05 09:29:30;;;;;;;7.43;4.45;;;;;;;;;;5013613;28;20030;-60
2023/06/05 09:32:00;;;;;;;7.55;4.53;;;;;;;;;;5014290;28;20038;-60
2023/06/05 09:34:33;;;;;;;8.02;4.47;;;;;;;;;;5013601;28;20176;-60
2023/06/05 09:37:00;;;;;;;8.18;4.00;;;;;;;;;;5014630;28;20042;-60
2023/06/05 09:39:27;;;;;;;7.45;4.20;;;;;;;;;;5027972;28;20049;-60
2023/06/05 09:41:56;;;;;;;8.93;5.25;;;;;;;;;;5026206;28;20375;-60
2023/06/05 09:44:23;;;;;;;8.68;4.35;;;;;;;;;;5014309;28;20490;-60
2023/06/05 09:47:09;;;;;;;7.78;4.45;;;;;;;;;;5012932;28;20034;-60
2023/06/05 09:49:40;;;;;;;7.60;4.03;;;;;;;;;;5008051;28;20038;-60
2023/06/05 09:52:09;;;;;;;6.55;4.32;;;;;;;;;;5006155;28;20066;-60
2023/06/05 09:54:37;;;;;;;7.22;4.30;;;;;;;;;;4997245;28;20049;-60
2023/06/05 09:57:10;;;;;;;7.85;4.53;;;;;;;;;;5014979;28;20021;-60
2023/06/05 09:59:53;;;;;;;7.80;4.20;;;;;;;;;;5013422;28;20052;-60
2023/06/05 10:02:21;;;;;;;7.72;4.20;;;;;;;;;;5013001;28;20033;-60
2023/06/05 10:04:50;;;;;;;7.03;4.03;;;;;;;;;;5013160;28;20030;-60
2023/06/05 10:07:15;;;;;;;7.65;4.25;;;;;;;;;;5013695;28;20036;-60
2023/06/05 10:09:42;;;;;;;8.20;4.03;;;;;;;;;;5012366;28;20030;-60
2023/06/05 10:12:08;;;;;;;6.78;3.80;;;;;;;;;;5012457;28;20285;-60
2023/06/05 10:14:36;;;;;;;10.40;3.80;;;;;;;;;;5012850;28;20391;-60
2023/06/05 10:17:02;;;;;;;6.07;3.60;;;;;;;;;;5013990;28;20030;-61
2023/06/05 10:19:30;;;;;;;5.72;3.80;;;;;;;;;;5012240;28;20486;-59
2023/06/05 10:21:55;;;;;;;5.68;3.90;;;;;;;;;;5012820;28;20467;-59
2023/06/05 10:24:21;;;;;;;5.43;3.60;;;;;;;;;;5013054;28;20084;-60
2023/06/05 10:27:15;;;;;;;9.82;3.60;;;;;;;;;;5012644;28;20054;-60
2023/06/05 10:29:46;;;;;;;6.57;3.53;;;;;;;;;;5023599;28;20440;-60
2023/06/05 10:32:28;;;;;;;7.32;3.67;;;;;;;;;;5033213;28;20033;-60
2023/06/05 10:35:05;;;;;;;7.13;3.50;;;;;;;;;;5033505;28;20029;-60
2023/06/05 10:37:43;;;;;;;6.43;3.70;;;;;;;;;;5032393;28;20078;-60
2023/06/05 10:40:09;;;;;;;5.50;3.35;;;;;;;;;;5021931;28;20132;-60
2023/06/05 10:42:36;;;;;;;5.30;3.17;;;;;;;;;;5012710;28;20030;-59
2023/06/05 10:45:01;;;;;;;5.15;3.10;;;;;;;;;;5012801;28;20328;-60
2023/06/05 10:47:33;;;;;;;9.65;3.38;;;;;;;;;;5013169;28;20034;-59
2023/06/05 10:50:17;;;;;;;7.05;3.03;;;;;;;;;;5013873;28;20033;-58
2023/06/05 10:52:43;;;;;;;6.40;3.30;;;;;;;;;;5012300;28;20033;-60
2023/06/05 10:55:09;;;;;;;8.13;3.60;;;;;;;;;;5013123;28;20112;-59
2023/06/05 10:58:13;;;;;;;7.13;3.60;;;;;;;;;;5012510;28;20030;-60
2023/06/05 11:01:20;;;;;;;6.22;3.50;;;;;;;;;;5009819;28;20041;-61
2023/06/05 11:03:57;;;;;;;7.47;3.20;;;;;;;;;;5022036;28;20067;-60
2023/06/05 11:06:23;;;;;;;6.32;4.13;;;;;;;;;;5004893;28;20038;-61
2023/06/05 11:09:14;;;;;;;6.80;3.47;;;;;;;;;;5002138;28;20065;-60
2023/06/05 11:12:02;;;;;;;6.20;3.38;;;;;;;;;;5009674;28;20111;-60
2023/06/05 11:14:48;;;;;;;5.03;3.47;;;;;;;;;;5005467;28;20057;-60
2023/06/05 11:17:27;;;;;;;9.85;4.28;;;;;;;;;;5008490;28;20038;-60
2023/06/05 11:19:52;;;;;;;7.60;4.00;;;;;;;;;;5010026;28;20026;-60
2023/06/05 11:22:18;;;;;;;6.63;3.90;;;;;;;;;;5010503;28;20026;-60
2023/06/05 11:24:43;;;;;;;6.43;3.85;;;;;;;;;;5026491;28;20124;-60
2023/06/05 11:27:56;;;;;;;7.22;3.97;;;;;;;;;;5019666;28;20059;-60
2023/06/05 11:30:26;;;;;;;6.30;3.80;;;;;;;;;;4967904;28;20132;-61
2023/06/05 11:32:54;;;;;;;8.40;3.88;;;;;;;;;;4999049;28;20068;-60
2023/06/05 11:35:23;;;;;;;6.03;3.60;;;;;;;;;;5001050;28;20071;-60
2023/06/05 11:38:06;;;;;;;4.73;3.30;;;;;;;;;;5005543;28;20088;-60
2023/06/05 11:40:32;;;;;;;7.28;3.58;;;;;;;;;;5011151;28;20096;-60
2023/06/05 11:43:05;;;;;;;5.65;3.47;;;;;;;;;;5011036;28;20034;-60
2023/06/05 11:45:57;;;;;;;5.95;3.50;;;;;;;;;;5011131;28;20396;-60
2023/06/05 11:48:24;;;;;;;7.93;3.50;;;;;;;;;;5012898;28;20034;-61
2023/06/05 11:50:59;;;;;;;7.15;3.35;;;;;;;;;;5011239;28;20025;-60
2023/06/05 11:53:26;;;;;;;5.75;3.28;;;;;;;;;;5012589;28;20129;-60
2023/06/05 11:55:55;;;;;;;5.85;3.20;;;;;;;;;;5011306;28;20029;-60
2023/06/05 11:58:24;;;;;;;9.07;3.45;;;;;;;;;;5010742;28;20471;-61
2023/06/05 12:00:51;;;;;;;6.57;3.10;;;;;;;;;;5010898;28;20042;-60
2023/06/05 12:03:20;;;;;;;5.63;3.30;;;;;;;;;;5011967;28;20034;-61
2023/06/05 12:05:48;;;;;;;5.07;3.28;;;;;;;;;;5010591;28;20034;-61
2023/06/05 12:08:27;;;;;;;5.65;3.10;;;;;;;;;;5011528;28;20096;-61
2023/06/05 12:10:53;;;;;;;7.20;3.10;;;;;;;;;;5015620;28;20030;-61
2023/06/05 12:13:19;;;;;;;8.90;3.50;;;;;;;;;;5012542;28;20041;-62
2023/06/05 12:16:00;;;;;;;7.43;3.33;;;;;;;;;;5013634;28;20042;-61
2023/06/05 12:18:33;;;;;;;5.13;3.03;;;;;;;;;;5018423;28;20034;-61
2023/06/05 12:20:59;;;;;;;6.28;3.10;;;;;;;;;;5025018;28;20080;-60
2023/06/05 12:23:25;;;;;;;5.60;3.03;;;;;;;;;;5019110;28;20030;-61
2023/06/05 12:26:01;;;;;;;10.88;3.20;;;;;;;;;;5010365;28;20037;-61
2023/06/05 12:28:27;;;;;;;4.47;3.10;;;;;;;;;;4997188;28;20121;-62
2023/06/05 12:30:53;;;;;;;4.35;3.10;;;;;;;;;;5000163;28;20019;-62
2023/06/05 12:33:19;;;;;;;6.15;3.05;;;;;;;;;;5028921;28;20041;-62
2023/06/05 12:35:46;;;;;;;6.75;3.20;;;;;;;;;;5034478;28;20434;-61
2023/06/05 12:38:11;;;;;;;6.80;3.20;;;;;;;;;;5029896;28;20123;-62
2023/06/05 12:40:37;;;;;;;7.03;3.00;;;;;;;;;;5018183;28;20240;-61
2023/06/05 12:43:02;;;;;;;11.07;3.10;;;;;;;;;;5015563;28;20399;-62
2023/06/05 12:45:30;;;;;;;4.22;2.90;;;;;;;;;;5015446;28;20057;-60
2023/06/05 12:47:55;;;;;;;4.45;3.13;;;;;;;;;;5017086;28;20053;-60
2023/06/05 12:50:21;;;;;;;6.15;3.17;;;;;;;;;;5016700;28;20030;-62
2023/06/05 12:52:47;;;;;;;4.18;2.80;;;;;;;;;;5023124;28;20523;-60
2023/06/05 12:55:13;;;;;;;5.40;3.28;;;;;;;;;;5017404;28;20030;-60
2023/06/05 12:57:38;;;;;;;7.05;2.90;;;;;;;;;;5014755;28;20076;-60
2023/06/05 13:00:13;;;;;;;4.03;2.72;;;;;;;;;;5006116;28;20462;-60
2023/06/05 13:02:43;;;;;;;6.43;3.17;;;;;;;;;;5010165;28;20113;-60
2023/06/05 13:05:09;;;;;;;6.53;2.90;;;;;;;;;;5019865;28;20037;-60
2023/06/05 13:07:37;;;;;;;4.97;2.90;;;;;;;;;;5005386;28;20420;-60
2023/06/05 13:10:04;;;;;;;4.63;2.90;;;;;;;;;;5003746;28;20116;-60
2023/06/05 13:12:30;;;;;;;4.90;2.72;;;;;;;;;;5028316;28;20034;-60
2023/06/05 13:14:56;;;;;;;5.38;2.67;;;;;;;;;;5004003;28;20030;-59
2023/06/05 13:17:22;;;;;;;6.18;2.95;;;;;;;;;;5021533;28;20057;-59
2023/06/05 13:19:48;;;;;;;5.38;2.90;;;;;;;;;;5011643;28;20042;-61
2023/06/05 13:22:14;;;;;;;7.60;2.75;;;;;;;;;;5003693;28;20128;-59
2023/06/05 13:24:40;;;;;;;3.80;2.90;;;;;;;;;;5012060;28;20137;-61
2023/06/05 13:27:06;;;;;;;4.13;2.90;;;;;;;;;;5013711;28;20479;-60
2023/06/05 13:29:31;;;;;;;11.82;3.20;;;;;;;;;;5009009;28;21225;-61
2023/06/05 13:31:56;;;;;;;4.60;2.55;;;;;;;;;;4997888;28;20054;-61
2023/06/05 13:34:22;;;;;;;5.03;2.78;;;;;;;;;;5013521;28;20462;-61
2023/06/05 13:36:47;;;;;;;4.13;2.92;;;;;;;;;;5008667;28;20043;-61
2023/06/05 13:39:12;;;;;;;4.70;2.90;;;;;;;;;;5028484;28;20490;-61
2023/06/05 13:41:39;;;;;;;4.72;3.00;;;;;;;;;;5033394;28;20033;-61
2023/06/05 13:44:04;;;;;;;4.78;2.70;;;;;;;;;;5004871;28;20034;-61
2023/06/05 13:46:30;;;;;;;3.78;2.47;;;;;;;;;;5001910;28;20053;-61
2023/06/05 13:48:57;;;;;;;4.07;2.90;;;;;;;;;;5011934;28;20138;-60
2023/06/05 13:51:22;;;;;;;4.57;2.65;;;;;;;;;;5008980;28;20211;-60
2023/06/05 13:53:48;;;;;;;9.23;2.70;;;;;;;;;;5009366;28;20523;-60
2023/06/05 13:56:13;;;;;;;6.47;2.80;;;;;;;;;;5013012;28;20049;-61
2023/06/05 13:58:38;;;;;;;4.13;2.67;;;;;;;;;;5005201;28;20038;-60
2023/06/05 14:01:04;;;;;;;3.83;2.80;;;;;;;;;;4997476;28;20061;-61
2023/06/05 14:03:29;;;;;;;8.32;2.90;;;;;;;;;;5009628;28;20043;-60
2023/06/05 14:05:55;;;;;;;3.95;2.60;;;;;;;;;;5004704;28;20030;-68
2023/06/05 14:08:20;;;;;;;5.47;2.72;;;;;;;;;;5013347;28;20034;-59
2023/06/05 14:10:46;;;;;;;4.18;2.60;;;;;;;;;;5020577;28;20029;-58
2023/06/05 14:13:12;;;;;;;3.03;2.40;;;;;;;;;;5033497;28;20044;-59
2023/06/05 14:15:38;;;;;;;4.65;2.72;;;;;;;;;;5032026;28;20065;-60
2023/06/05 14:18:05;;;;;;;5.43;2.60;;;;;;;;;;5022857;28;20501;-58
2023/06/05 14:20:31;;;;;;;4.88;2.70;;;;;;;;;;5033574;28;20044;-59
2023/06/05 14:22:58;;;;;;;3.83;2.30;;;;;;;;;;5019483;28;20087;-57
2023/06/05 14:25:25;;;;;;;5.18;2.60;;;;;;;;;;5033000;28;20501;-59
2023/06/05 14:27:53;;;;;;;4.50;2.60;;;;;;;;;;5032317;28;20065;-59
2023/06/05 14:30:19;;;;;;;5.60;2.40;;;;;;;;;;5032890;28;20033;-59
2023/06/05 14:32:44;;;;;;;4.35;2.55;;;;;;;;;;5031960;28;20062;-59
2023/06/05 14:35:10;;;;;;;9.10;2.72;;;;;;;;;;5033235;28;20036;-59
2023/06/05 14:37:36;;;;;;;5.30;2.70;;;;;;;;;;5029902;28;20068;-58
2023/06/05 14:40:01;;;;;;;5.65;2.60;;;;;;;;;;5012148;28;20080;-59
2023/06/05 14:42:27;;;;;;;4.05;2.30;;;;;;;;;;5023119;28;20386;-58
2023/06/05 14:44:52;;;;;;;3.85;2.67;;;;;;;;;;5032453;28;20052;-59